sensor_id;sensor_type;location;lat;lon;timestamp;pressure;altitude;pressure_sealevel;temperature;humidity
77939;BME280;67136;47.546;21.630;2023-12-22T00:00:30;97696.88;;;3.28;100.00
77939;BME280;67136;47.546;21.630;2023-12-22T00:03:33;97700.72;;;3.41;100.00
77939;BME280;67136;47.546;21.630;2023-12-22T00:06:35;97684.19;;;3.34;100.00
77939;BME280;67136;47.546;21.630;2023-12-22T00:09:38;97690.84;;;3.37;100.00
77939;BME280;67136;47.546;21.630;2023-12-22T00:12:40;97692.31;;;3.39;100.00
77939;BME280;67136;47.546;21.630;2023-12-22T00:15:43;97705.19;;;3.49;100.00
77939;BME280;67136;47.546;21.630;2023-12-22T00:18:46;97714.53;;;3.50;100.00
77939;BME280;67136;47.546;21.630;2023-12-22T00:21:48;97699.34;;;3.47;100.00
77939;BME280;67136;47.546;21.630;2023-12-22T00:24:51;97707.47;;;3.52;100.00
77939;BME280;67136;47.546;21.630;2023-12-22T00:27:53;97686.81;;;3.52;100.00
77939;BME280;67136;47.546;21.630;2023-12-22T00:30:56;97658.00;;;3.47;100.00
77939;BME280;67136;47.546;21.630;2023-12-22T00:33:59;97658.09;;;3.55;100.00
77939;BME280;67136;47.546;21.630;2023-12-22T00:37:02;97655.50;;;3.55;100.00
77939;BME280;67136;47.546;21.630;2023-12-22T00:40:08;97657.72;;;3.50;100.00
77939;BME280;67136;47.546;21.630;2023-12-22T00:43:11;97660.00;;;3.53;100.00
77939;BME280;67136;47.546;21.630;2023-12-22T00:46:14;97676.91;;;3.65;100.00
77939;BME280;67136;47.546;21.630;2023-12-22T00:49:17;97714.19;;;3.62;100.00
77939;BME280;67136;47.546;21.630;2023-12-22T00:52:20;97709.81;;;3.63;100.00
77939;BME280;67136;47.546;21.630;2023-12-22T00:55:23;97708.88;;;3.64;100.00
77939;BME280;67136;47.546;21.630;2023-12-22T00:58:26;97689.09;;;3.55;100.00
77939;BME280;67136;47.546;21.630;2023-12-22T01:01:29;97672.91;;;3.53;100.00
77939;BME280;67136;47.546;21.630;2023-12-22T01:04:31;97662.38;;;3.46;100.00
77939;BME280;67136;47.546;21.630;2023-12-22T01:07:34;97641.91;;;3.53;100.00
77939;BME280;67136;47.546;21.630;2023-12-22T01:10:37;97648.72;;;3.54;100.00
77939;BME280;67136;47.546;21.630;2023-12-22T01:13:39;97636.47;;;3.56;100.00
77939;BME280;67136;47.546;21.630;2023-12-22T01:16:42;97647.38;;;3.50;100.00
77939;BME280;67136;47.546;21.630;2023-12-22T01:19:44;97651.69;;;3.59;100.00
77939;BME280;67136;47.546;21.630;2023-12-22T01:22:48;97670.44;;;3.61;100.00
77939;BME280;67136;47.546;21.630;2023-12-22T01:25:51;97669.69;;;3.51;100.00
77939;BME280;67136;47.546;21.630;2023-12-22T01:28:53;97667.91;;;3.34;100.00
77939;BME280;67136;47.546;21.630;2023-12-22T01:31:56;97667.53;;;3.29;100.00
77939;BME280;67136;47.546;21.630;2023-12-22T01:34:59;97645.91;;;3.30;100.00
77939;BME280;67136;47.546;21.630;2023-12-22T01:38:05;97622.59;;;3.39;100.00
77939;BME280;67136;47.546;21.630;2023-12-22T01:41:08;97636.00;;;3.43;100.00
77939;BME280;67136;47.546;21.630;2023-12-22T01:44:11;97638.69;;;3.51;100.00
77939;BME280;67136;47.546;21.630;2023-12-22T01:47:14;97634.91;;;3.45;100.00
77939;BME280;67136;47.546;21.630;2023-12-22T01:50:17;97621.63;;;3.40;100.00
77939;BME280;67136;47.546;21.630;2023-12-22T01:53:20;97633.72;;;3.40;100.00
77939;BME280;67136;47.546;21.630;2023-12-22T01:56:24;97612.66;;;3.44;100.00
77939;BME280;67136;47.546;21.630;2023-12-22T01:59:27;97632.72;;;3.50;100.00
77939;BME280;67136;47.546;21.630;2023-12-22T02:02:30;97620.47;;;3.52;100.00
77939;BME280;67136;47.546;21.630;2023-12-22T02:05:33;97612.25;;;3.57;100.00
77939;BME280;67136;47.546;21.630;2023-12-22T02:08:36;97613.22;;;3.56;100.00
77939;BME280;67136;47.546;21.630;2023-12-22T02:11:39;97618.25;;;3.57;100.00
77939;BME280;67136;47.546;21.630;2023-12-22T02:14:42;97605.59;;;3.72;100.00
77939;BME280;67136;47.546;21.630;2023-12-22T02:17:54;97589.91;;;3.65;100.00
77939;BME280;67136;47.546;21.630;2023-12-22T02:20:58;97597.75;;;3.81;100.00
77939;BME280;67136;47.546;21.630;2023-12-22T02:24:01;97597.69;;;3.91;100.00
77939;BME280;67136;47.546;21.630;2023-12-22T02:27:15;97590.66;;;4.01;100.00
77939;BME280;67136;47.546;21.630;2023-12-22T02:33:27;97571.19;;;4.15;100.00
77939;BME280;67136;47.546;21.630;2023-12-22T02:36:32;97580.69;;;4.14;100.00
77939;BME280;67136;47.546;21.630;2023-12-22T02:39:38;97585.25;;;4.20;100.00
77939;BME280;67136;47.546;21.630;2023-12-22T02:42:42;97575.22;;;4.17;100.00
77939;BME280;67136;47.546;21.630;2023-12-22T02:45:50;97578.13;;;4.14;100.00
77939;BME280;67136;47.546;21.630;2023-12-22T02:48:53;97575.84;;;4.11;100.00
77939;BME280;67136;47.546;21.630;2023-12-22T02:51:56;97585.81;;;4.06;100.00
77939;BME280;67136;47.546;21.630;2023-12-22T02:54:59;97563.22;;;4.08;100.00
77939;BME280;67136;47.546;21.630;2023-12-22T02:58:01;97572.59;;;4.09;100.00
77939;BME280;67136;47.546;21.630;2023-12-22T03:01:04;97568.69;;;4.05;100.00
77939;BME280;67136;47.546;21.630;2023-12-22T03:04:07;97562.25;;;4.09;100.00
77939;BME280;67136;47.546;21.630;2023-12-22T03:07:10;97552.06;;;4.08;100.00
77939;BME280;67136;47.546;21.630;2023-12-22T03:10:12;97553.31;;;4.04;100.00
77939;BME280;67136;47.546;21.630;2023-12-22T03:13:15;97546.75;;;4.09;100.00
77939;BME280;67136;47.546;21.630;2023-12-22T03:16:17;97539.66;;;4.11;100.00
77939;BME280;67136;47.546;21.630;2023-12-22T03:19:20;97540.00;;;4.16;100.00
77939;BME280;67136;47.546;21.630;2023-12-22T03:22:24;97533.25;;;4.23;100.00
77939;BME280;67136;47.546;21.630;2023-12-22T03:25:27;97522.63;;;4.42;100.00
77939;BME280;67136;47.546;21.630;2023-12-22T03:28:30;97499.66;;;4.31;100.00
77939;BME280;67136;47.546;21.630;2023-12-22T03:31:32;97481.91;;;4.36;100.00
77939;BME280;67136;47.546;21.630;2023-12-22T03:34:35;97482.25;;;4.49;100.00
77939;BME280;67136;47.546;21.630;2023-12-22T03:37:38;97454.44;;;4.51;100.00
77939;BME280;67136;47.546;21.630;2023-12-22T03:40:40;97478.72;;;4.58;100.00
77939;BME280;67136;47.546;21.630;2023-12-22T03:43:43;97466.41;;;4.60;100.00
77939;BME280;67136;47.546;21.630;2023-12-22T03:46:46;97472.25;;;4.62;100.00
77939;BME280;67136;47.546;21.630;2023-12-22T03:49:48;97462.91;;;4.69;100.00
77939;BME280;67136;47.546;21.630;2023-12-22T03:52:51;97513.97;;;4.59;100.00
77939;BME280;67136;47.546;21.630;2023-12-22T03:55:54;97512.78;;;4.46;100.00
77939;BME280;67136;47.546;21.630;2023-12-22T03:58:57;97529.44;;;4.43;100.00
77939;BME280;67136;47.546;21.630;2023-12-22T04:02:00;97526.22;;;4.41;100.00
77939;BME280;67136;47.546;21.630;2023-12-22T04:05:04;97516.53;;;4.43;100.00
77939;BME280;67136;47.546;21.630;2023-12-22T04:08:07;97524.22;;;4.35;100.00
77939;BME280;67136;47.546;21.630;2023-12-22T04:11:10;97509.37;;;4.45;100.00
77939;BME280;67136;47.546;21.630;2023-12-22T04:14:13;97505.56;;;4.57;100.00
77939;BME280;67136;47.546;21.630;2023-12-22T04:17:15;97506.75;;;4.29;100.00
77939;BME280;67136;47.546;21.630;2023-12-22T04:20:18;97485.25;;;4.29;100.00
77939;BME280;67136;47.546;21.630;2023-12-22T04:23:21;97509.72;;;4.42;100.00
77939;BME280;67136;47.546;21.630;2023-12-22T04:26:23;97508.25;;;4.40;100.00
77939;BME280;67136;47.546;21.630;2023-12-22T04:29:26;97516.13;;;4.30;100.00
77939;BME280;67136;47.546;21.630;2023-12-22T04:32:28;97505.66;;;4.40;100.00
77939;BME280;67136;47.546;21.630;2023-12-22T04:35:31;97526.25;;;4.57;100.00
77939;BME280;67136;47.546;21.630;2023-12-22T04:38:33;97534.84;;;4.66;100.00
77939;BME280;67136;47.546;21.630;2023-12-22T04:41:36;97533.69;;;4.60;100.00
77939;BME280;67136;47.546;21.630;2023-12-22T04:44:38;97525.75;;;4.54;100.00
77939;BME280;67136;47.546;21.630;2023-12-22T04:47:41;97521.63;;;4.35;100.00
77939;BME280;67136;47.546;21.630;2023-12-22T04:50:44;97530.13;;;4.53;100.00
77939;BME280;67136;47.546;21.630;2023-12-22T04:53:47;97529.47;;;4.51;100.00
77939;BME280;67136;47.546;21.630;2023-12-22T04:56:49;97540.44;;;4.45;100.00
77939;BME280;67136;47.546;21.630;2023-12-22T04:59:52;97544.56;;;4.30;100.00
77939;BME280;67136;47.546;21.630;2023-12-22T05:02:55;97555.81;;;4.47;100.00
77939;BME280;67136;47.546;21.630;2023-12-22T05:05:58;97545.25;;;4.40;100.00
77939;BME280;67136;47.546;21.630;2023-12-22T05:09:00;97554.53;;;4.17;100.00
77939;BME280;67136;47.546;21.630;2023-12-22T05:12:03;97552.09;;;4.16;100.00
77939;BME280;67136;47.546;21.630;2023-12-22T05:15:06;97561.22;;;4.02;100.00
77939;BME280;67136;47.546;21.630;2023-12-22T05:18:09;97565.09;;;3.98;100.00
77939;BME280;67136;47.546;21.630;2023-12-22T05:21:13;97576.66;;;3.86;100.00
77939;BME280;67136;47.546;21.630;2023-12-22T05:24:16;97578.31;;;3.95;100.00
77939;BME280;67136;47.546;21.630;2023-12-22T05:27:19;97586.16;;;3.86;100.00
77939;BME280;67136;47.546;21.630;2023-12-22T05:30:22;97589.94;;;3.73;100.00
77939;BME280;67136;47.546;21.630;2023-12-22T05:33:24;97606.22;;;3.66;100.00
77939;BME280;67136;47.546;21.630;2023-12-22T05:36:27;97609.75;;;3.65;100.00
77939;BME280;67136;47.546;21.630;2023-12-22T05:39:29;97615.94;;;3.72;100.00
77939;BME280;67136;47.546;21.630;2023-12-22T05:42:32;97609.94;;;3.71;100.00
77939;BME280;67136;47.546;21.630;2023-12-22T05:45:34;97621.19;;;3.62;100.00
77939;BME280;67136;47.546;21.630;2023-12-22T05:48:37;97625.84;;;3.59;100.00
77939;BME280;67136;47.546;21.630;2023-12-22T05:51:40;97619.66;;;3.52;100.00
77939;BME280;67136;47.546;21.630;2023-12-22T05:54:43;97613.59;;;3.26;100.00
77939;BME280;67136;47.546;21.630;2023-12-22T05:57:45;97609.66;;;3.39;100.00
77939;BME280;67136;47.546;21.630;2023-12-22T06:00:51;97625.09;;;3.49;100.00
77939;BME280;67136;47.546;21.630;2023-12-22T06:03:54;97635.28;;;3.33;100.00
77939;BME280;67136;47.546;21.630;2023-12-22T06:06:57;97634.28;;;2.99;100.00
77939;BME280;67136;47.546;21.630;2023-12-22T06:10:00;97642.97;;;2.98;100.00
77939;BME280;67136;47.546;21.630;2023-12-22T06:13:02;97659.13;;;3.00;100.00
77939;BME280;67136;47.546;21.630;2023-12-22T06:16:06;97663.28;;;2.83;100.00
77939;BME280;67136;47.546;21.630;2023-12-22T06:19:08;97690.75;;;2.75;100.00
77939;BME280;67136;47.546;21.630;2023-12-22T06:22:13;97708.22;;;2.81;100.00
77939;BME280;67136;47.546;21.630;2023-12-22T06:25:15;97708.91;;;2.83;100.00
77939;BME280;67136;47.546;21.630;2023-12-22T06:28:18;97707.63;;;2.96;100.00
77939;BME280;67136;47.546;21.630;2023-12-22T06:31:21;97717.25;;;3.04;100.00
77939;BME280;67136;47.546;21.630;2023-12-22T06:34:25;97718.81;;;2.87;100.00
77939;BME280;67136;47.546;21.630;2023-12-22T06:37:28;97725.44;;;2.90;100.00
77939;BME280;67136;47.546;21.630;2023-12-22T06:40:30;97727.94;;;2.82;100.00
77939;BME280;67136;47.546;21.630;2023-12-22T06:43:33;97732.22;;;2.91;100.00
77939;BME280;67136;47.546;21.630;2023-12-22T06:46:36;97735.81;;;2.80;100.00
77939;BME280;67136;47.546;21.630;2023-12-22T06:49:38;97739.66;;;2.67;100.00
77939;BME280;67136;47.546;21.630;2023-12-22T06:52:41;97748.97;;;2.87;100.00
77939;BME280;67136;47.546;21.630;2023-12-22T06:55:43;97758.63;;;2.75;100.00
77939;BME280;67136;47.546;21.630;2023-12-22T06:58:48;97759.31;;;2.77;100.00
77939;BME280;67136;47.546;21.630;2023-12-22T07:01:51;97774.53;;;3.17;100.00
77939;BME280;67136;47.546;21.630;2023-12-22T07:08:12;97795.97;;;3.54;100.00
77939;BME280;67136;47.546;21.630;2023-12-22T07:11:15;97793.22;;;3.83;100.00
77939;BME280;67136;47.546;21.630;2023-12-22T07:14:22;97809.47;;;3.93;100.00
77939;BME280;67136;47.546;21.630;2023-12-22T07:17:25;97815.25;;;4.04;100.00
77939;BME280;67136;47.546;21.630;2023-12-22T07:20:27;97821.75;;;4.26;100.00
77939;BME280;67136;47.546;21.630;2023-12-22T07:23:30;97829.69;;;4.42;100.00
77939;BME280;67136;47.546;21.630;2023-12-22T07:26:32;97821.72;;;4.61;100.00
77939;BME280;67136;47.546;21.630;2023-12-22T07:29:35;97815.97;;;4.67;100.00
77939;BME280;67136;47.546;21.630;2023-12-22T07:32:39;97838.41;;;4.84;100.00
77939;BME280;67136;47.546;21.630;2023-12-22T07:35:43;97845.53;;;5.07;100.00
77939;BME280;67136;47.546;21.630;2023-12-22T07:38:47;97849.94;;;4.89;100.00
77939;BME280;67136;47.546;21.630;2023-12-22T07:41:49;97843.41;;;5.29;98.83
77939;BME280;67136;47.546;21.630;2023-12-22T07:44:52;97846.44;;;4.98;100.00
77939;BME280;67136;47.546;21.630;2023-12-22T07:47:55;97862.28;;;5.47;98.99
77939;BME280;67136;47.546;21.630;2023-12-22T07:50:58;97858.16;;;5.70;98.24
77939;BME280;67136;47.546;21.630;2023-12-22T07:54:01;97870.34;;;5.69;96.30
77939;BME280;67136;47.546;21.630;2023-12-22T07:57:03;97873.97;;;5.51;97.39
77939;BME280;67136;47.546;21.630;2023-12-22T08:00:07;97865.78;;;5.71;96.99
77939;BME280;67136;47.546;21.630;2023-12-22T08:03:13;97864.41;;;5.85;93.25
77939;BME280;67136;47.546;21.630;2023-12-22T08:06:16;97870.00;;;5.98;91.09
77939;BME280;67136;47.546;21.630;2023-12-22T08:09:19;97877.47;;;6.01;93.06
77939;BME280;67136;47.546;21.630;2023-12-22T08:12:22;97886.50;;;5.97;91.48
77939;BME280;67136;47.546;21.630;2023-12-22T08:15:25;97883.19;;;6.12;90.10
77939;BME280;67136;47.546;21.630;2023-12-22T08:18:38;97892.22;;;6.74;88.97
77939;BME280;67136;47.546;21.630;2023-12-22T08:21:42;97891.88;;;6.61;87.26
77939;BME280;67136;47.546;21.630;2023-12-22T08:24:49;97897.09;;;6.93;85.84
77939;BME280;67136;47.546;21.630;2023-12-22T08:27:52;97904.56;;;7.04;83.89
77939;BME280;67136;47.546;21.630;2023-12-22T08:30:55;97911.69;;;6.70;84.98
77939;BME280;67136;47.546;21.630;2023-12-22T08:33:57;97909.44;;;6.99;83.20
77939;BME280;67136;47.546;21.630;2023-12-22T08:37:00;97909.88;;;6.47;86.54
77939;BME280;67136;47.546;21.630;2023-12-22T08:40:03;97908.19;;;6.21;87.30
77939;BME280;67136;47.546;21.630;2023-12-22T08:43:08;97908.94;;;6.14;88.19
77939;BME280;67136;47.546;21.630;2023-12-22T08:46:10;97903.44;;;6.17;90.57
77939;BME280;67136;47.546;21.630;2023-12-22T08:49:14;97907.50;;;6.11;87.66
77939;BME280;67136;47.546;21.630;2023-12-22T08:52:16;97915.53;;;6.00;85.71
77939;BME280;67136;47.546;21.630;2023-12-22T08:55:19;97906.38;;;6.22;87.65
77939;BME280;67136;47.546;21.630;2023-12-22T08:58:22;97912.31;;;6.48;87.06
77939;BME280;67136;47.546;21.630;2023-12-22T09:01:25;97909.44;;;6.83;83.60
77939;BME280;67136;47.546;21.630;2023-12-22T09:04:27;97917.22;;;6.83;81.47
77939;BME280;67136;47.546;21.630;2023-12-22T09:07:30;97927.59;;;7.31;80.73
77939;BME280;67136;47.546;21.630;2023-12-22T09:10:33;97923.94;;;7.81;79.82
77939;BME280;67136;47.546;21.630;2023-12-22T09:13:36;97924.16;;;8.18;75.88
77939;BME280;67136;47.546;21.630;2023-12-22T09:16:38;97925.03;;;7.94;75.37
77939;BME280;67136;47.546;21.630;2023-12-22T09:19:41;97928.44;;;8.03;76.01
77939;BME280;67136;47.546;21.630;2023-12-22T09:22:45;97925.94;;;8.17;73.17
77939;BME280;67136;47.546;21.630;2023-12-22T09:25:48;97920.37;;;9.04;69.18
77939;BME280;67136;47.546;21.630;2023-12-22T09:28:50;97921.31;;;9.11;68.22
77939;BME280;67136;47.546;21.630;2023-12-22T09:31:54;97919.81;;;10.27;64.27
77939;BME280;67136;47.546;21.630;2023-12-22T09:34:56;97923.56;;;10.39;63.28
77939;BME280;67136;47.546;21.630;2023-12-22T09:38:02;97924.12;;;10.05;62.68
77939;BME280;67136;47.546;21.630;2023-12-22T09:41:05;97924.47;;;10.46;60.60
77939;BME280;67136;47.546;21.630;2023-12-22T09:44:09;97934.84;;;10.75;61.52
77939;BME280;67136;47.546;21.630;2023-12-22T09:47:12;97929.31;;;10.63;60.26
77939;BME280;67136;47.546;21.630;2023-12-22T09:50:15;97922.16;;;9.92;61.62
77939;BME280;67136;47.546;21.630;2023-12-22T09:53:19;97929.63;;;10.75;59.01
77939;BME280;67136;47.546;21.630;2023-12-22T09:56:24;97927.03;;;10.25;60.30
77939;BME280;67136;47.546;21.630;2023-12-22T09:59:28;97918.75;;;10.57;59.93
77939;BME280;67136;47.546;21.630;2023-12-22T10:02:33;97918.97;;;10.41;58.51
77939;BME280;67136;47.546;21.630;2023-12-22T10:05:36;97916.66;;;10.17;59.20
77939;BME280;67136;47.546;21.630;2023-12-22T10:08:39;97919.00;;;10.62;59.66
77939;BME280;67136;47.546;21.630;2023-12-22T10:11:46;97914.69;;;10.19;60.08
77939;BME280;67136;47.546;21.630;2023-12-22T10:14:52;97927.72;;;10.83;57.74
77939;BME280;67136;47.546;21.630;2023-12-22T10:17:56;97925.28;;;10.82;57.04
77939;BME280;67136;47.546;21.630;2023-12-22T10:20:58;97918.78;;;10.78;56.30
77939;BME280;67136;47.546;21.630;2023-12-22T10:24:02;97926.31;;;10.66;56.31
77939;BME280;67136;47.546;21.630;2023-12-22T10:27:05;97934.59;;;10.91;55.61
77939;BME280;67136;47.546;21.630;2023-12-22T10:30:09;97918.03;;;11.26;54.68
77939;BME280;67136;47.546;21.630;2023-12-22T10:33:12;97918.53;;;9.93;57.14
77939;BME280;67136;47.546;21.630;2023-12-22T10:36:14;97925.63;;;11.42;54.07
77939;BME280;67136;47.546;21.630;2023-12-22T10:39:17;97922.13;;;11.63;50.63
77939;BME280;67136;47.546;21.630;2023-12-22T10:42:20;97920.44;;;11.76;52.37
77939;BME280;67136;47.546;21.630;2023-12-22T10:45:23;97937.31;;;11.67;51.29
77939;BME280;67136;47.546;21.630;2023-12-22T10:48:28;97931.84;;;10.99;51.93
77939;BME280;67136;47.546;21.630;2023-12-22T10:51:31;97917.66;;;11.29;51.13
77939;BME280;67136;47.546;21.630;2023-12-22T10:54:35;97912.16;;;11.45;50.76
77939;BME280;67136;47.546;21.630;2023-12-22T10:57:38;97913.84;;;11.10;50.18
77939;BME280;67136;47.546;21.630;2023-12-22T11:00:44;97910.28;;;12.35;48.57
77939;BME280;67136;47.546;21.630;2023-12-22T11:03:51;97910.88;;;12.30;47.15
77939;BME280;67136;47.546;21.630;2023-12-22T11:06:57;97925.88;;;12.49;47.23
77939;BME280;67136;47.546;21.630;2023-12-22T11:10:06;97916.91;;;11.90;47.62
77939;BME280;67136;47.546;21.630;2023-12-22T11:13:11;97911.44;;;11.58;48.60
77939;BME280;67136;47.546;21.630;2023-12-22T11:16:18;97896.59;;;12.39;48.37
77939;BME280;67136;47.546;21.630;2023-12-22T11:19:23;97901.06;;;11.64;48.00
77939;BME280;67136;47.546;21.630;2023-12-22T11:22:28;97889.72;;;12.32;47.04
77939;BME280;67136;47.546;21.630;2023-12-22T11:25:31;97893.78;;;12.47;45.95
77939;BME280;67136;47.546;21.630;2023-12-22T11:28:35;97898.13;;;13.01;44.95
77939;BME280;67136;47.546;21.630;2023-12-22T11:31:39;97901.22;;;13.50;43.34
77939;BME280;67136;47.546;21.630;2023-12-22T11:34:44;97884.19;;;12.68;44.81
77939;BME280;67136;47.546;21.630;2023-12-22T11:37:49;97887.88;;;13.19;44.53
77939;BME280;67136;47.546;21.630;2023-12-22T11:40:52;97887.41;;;11.48;47.51
77939;BME280;67136;47.546;21.630;2023-12-22T11:43:57;97895.38;;;12.35;45.63
77939;BME280;67136;47.546;21.630;2023-12-22T11:47:08;97889.22;;;11.47;47.32
77939;BME280;67136;47.546;21.630;2023-12-22T11:50:12;97898.72;;;10.43;50.19
77939;BME280;67136;47.546;21.630;2023-12-22T11:53:21;97896.44;;;10.54;50.23
77939;BME280;67136;47.546;21.630;2023-12-22T11:56:25;97890.72;;;10.86;49.62
77939;BME280;67136;47.546;21.630;2023-12-22T11:59:27;97879.41;;;10.23;50.16
77939;BME280;67136;47.546;21.630;2023-12-22T12:02:30;97877.53;;;8.84;53.45
77939;BME280;67136;47.546;21.630;2023-12-22T12:05:39;97877.59;;;8.53;56.03
77939;BME280;67136;47.546;21.630;2023-12-22T12:08:44;97880.53;;;8.20;57.18
77939;BME280;67136;47.546;21.630;2023-12-22T12:15:28;97876.53;;;8.09;59.21
77939;BME280;67136;47.546;21.630;2023-12-22T12:18:32;97865.28;;;8.09;59.19
77939;BME280;67136;47.546;21.630;2023-12-22T12:21:36;97883.81;;;8.75;56.08
77939;BME280;67136;47.546;21.630;2023-12-22T12:24:41;97880.81;;;9.38;53.42
77939;BME280;67136;47.546;21.630;2023-12-22T12:27:44;97887.44;;;10.42;50.89
77939;BME280;67136;47.546;21.630;2023-12-22T12:30:47;97886.91;;;10.11;51.84
77939;BME280;67136;47.546;21.630;2023-12-22T12:33:49;97888.28;;;11.61;48.59
77939;BME280;67136;47.546;21.630;2023-12-22T12:36:53;97885.66;;;11.82;48.34
77939;BME280;67136;47.546;21.630;2023-12-22T12:39:58;97884.44;;;10.24;53.81
77939;BME280;67136;47.546;21.630;2023-12-22T12:43:05;97890.09;;;8.58;58.85
77939;BME280;67136;47.546;21.630;2023-12-22T12:46:09;97895.41;;;8.03;61.73
77939;BME280;67136;47.546;21.630;2023-12-22T12:49:12;97898.91;;;7.88;63.68
77939;BME280;67136;47.546;21.630;2023-12-22T12:52:15;97905.19;;;7.22;65.98
77939;BME280;67136;47.546;21.630;2023-12-22T12:55:19;97920.81;;;6.98;67.61
77939;BME280;67136;47.546;21.630;2023-12-22T12:58:30;97918.53;;;7.11;67.64
77939;BME280;67136;47.546;21.630;2023-12-22T13:01:40;97927.28;;;7.02;67.70
77939;BME280;67136;47.546;21.630;2023-12-22T13:04:43;97919.97;;;6.98;67.55
77939;BME280;67136;47.546;21.630;2023-12-22T13:07:46;97917.22;;;7.15;68.22
77939;BME280;67136;47.546;21.630;2023-12-22T13:10:59;97912.34;;;8.68;63.37
77939;BME280;67136;47.546;21.630;2023-12-22T13:14:03;97913.37;;;9.42;58.92
77939;BME280;67136;47.546;21.630;2023-12-22T13:17:07;97904.50;;;7.44;66.52
77939;BME280;67136;47.546;21.630;2023-12-22T13:20:13;97904.41;;;6.98;70.39
77939;BME280;67136;47.546;21.630;2023-12-22T13:23:19;97911.19;;;6.67;71.55
77939;BME280;67136;47.546;21.630;2023-12-22T13:26:22;97896.06;;;6.54;72.50
77939;BME280;67136;47.546;21.630;2023-12-22T13:29:26;97894.56;;;6.27;73.34
77939;BME280;67136;47.546;21.630;2023-12-22T13:32:29;97886.09;;;6.09;74.19
77939;BME280;67136;47.546;21.630;2023-12-22T13:35:32;97895.13;;;6.05;75.03
77939;BME280;67136;47.546;21.630;2023-12-22T13:38:48;97900.34;;;5.80;73.15
77939;BME280;67136;47.546;21.630;2023-12-22T13:41:51;97898.22;;;5.75;72.90
77939;BME280;67136;47.546;21.630;2023-12-22T13:44:54;97911.91;;;5.60;71.45
77939;BME280;67136;47.546;21.630;2023-12-22T13:47:57;97909.53;;;5.41;72.67
77939;BME280;67136;47.546;21.630;2023-12-22T13:51:03;97907.84;;;5.32;74.08
77939;BME280;67136;47.546;21.630;2023-12-22T13:54:06;97923.56;;;5.30;74.89
77939;BME280;67136;47.546;21.630;2023-12-22T13:57:19;97922.63;;;6.40;71.36
77939;BME280;67136;47.546;21.630;2023-12-22T14:00:27;97921.25;;;7.50;66.16
77939;BME280;67136;47.546;21.630;2023-12-22T14:03:31;97924.19;;;8.71;62.71
77939;BME280;67136;47.546;21.630;2023-12-22T14:06:37;97933.69;;;9.32;59.28
77939;BME280;67136;47.546;21.630;2023-12-22T14:10:04;97930.31;;;8.55;61.81
77939;BME280;67136;47.546;21.630;2023-12-22T14:13:07;97937.50;;;7.28;67.80
77939;BME280;67136;47.546;21.630;2023-12-22T14:16:09;97944.50;;;7.03;68.85
77939;BME280;67136;47.546;21.630;2023-12-22T14:19:12;97930.09;;;5.93;75.62
77939;BME280;67136;47.546;21.630;2023-12-22T14:22:15;97945.75;;;4.72;83.12
77939;BME280;67136;47.546;21.630;2023-12-22T14:25:18;97950.34;;;4.33;87.56
77939;BME280;67136;47.546;21.630;2023-12-22T14:28:20;97943.50;;;3.88;91.29
77939;BME280;67136;47.546;21.630;2023-12-22T14:31:23;97948.03;;;3.66;93.85
77939;BME280;67136;47.546;21.630;2023-12-22T14:34:26;97951.63;;;3.56;94.11
77939;BME280;67136;47.546;21.630;2023-12-22T14:37:29;97948.41;;;3.44;94.50
77939;BME280;67136;47.546;21.630;2023-12-22T14:40:32;97941.91;;;3.31;95.79
77939;BME280;67136;47.546;21.630;2023-12-22T14:43:35;97938.91;;;3.26;95.78
77939;BME280;67136;47.546;21.630;2023-12-22T14:46:39;97939.75;;;3.17;96.17
77939;BME280;67136;47.546;21.630;2023-12-22T14:49:42;97936.19;;;3.18;96.03
77939;BME280;67136;47.546;21.630;2023-12-22T14:52:45;97931.28;;;3.24;95.21
77939;BME280;67136;47.546;21.630;2023-12-22T14:55:48;97931.59;;;3.12;95.61
77939;BME280;67136;47.546;21.630;2023-12-22T14:58:51;97920.31;;;3.13;95.66
77939;BME280;67136;47.546;21.630;2023-12-22T15:01:53;97911.75;;;3.22;94.71
77939;BME280;67136;47.546;21.630;2023-12-22T15:04:57;97926.94;;;3.25;95.35
77939;BME280;67136;47.546;21.630;2023-12-22T15:08:03;97929.13;;;3.20;96.16
77939;BME280;67136;47.546;21.630;2023-12-22T15:11:06;97933.75;;;3.26;96.21
77939;BME280;67136;47.546;21.630;2023-12-22T15:14:10;97930.38;;;3.16;97.18
77939;BME280;67136;47.546;21.630;2023-12-22T15:17:13;97934.84;;;3.14;97.39
77939;BME280;67136;47.546;21.630;2023-12-22T15:20:16;97942.72;;;3.22;96.10
77939;BME280;67136;47.546;21.630;2023-12-22T15:23:19;97940.56;;;3.17;96.16
77939;BME280;67136;47.546;21.630;2023-12-22T15:26:24;97933.59;;;3.18;95.92
77939;BME280;67136;47.546;21.630;2023-12-22T15:29:30;97941.25;;;3.10;96.67
77939;BME280;67136;47.546;21.630;2023-12-22T15:32:33;97943.78;;;3.19;95.74
77939;BME280;67136;47.546;21.630;2023-12-22T15:35:35;97939.16;;;3.23;95.22
77939;BME280;67136;47.546;21.630;2023-12-22T15:38:38;97928.72;;;3.15;96.00
77939;BME280;67136;47.546;21.630;2023-12-22T15:41:40;97922.88;;;3.13;96.22
77939;BME280;67136;47.546;21.630;2023-12-22T15:44:43;97925.34;;;2.86;98.26
77939;BME280;67136;47.546;21.630;2023-12-22T15:47:45;97921.28;;;2.93;97.03
77939;BME280;67136;47.546;21.630;2023-12-22T15:50:48;97923.31;;;2.80;97.33
77939;BME280;67136;47.546;21.630;2023-12-22T15:53:51;97917.59;;;2.47;99.43
77939;BME280;67136;47.546;21.630;2023-12-22T15:56:54;97914.22;;;2.37;100.00
77939;BME280;67136;47.546;21.630;2023-12-22T15:59:56;97921.94;;;2.37;100.00
77939;BME280;67136;47.546;21.630;2023-12-22T16:02:59;97925.47;;;2.46;99.87
77939;BME280;67136;47.546;21.630;2023-12-22T16:06:03;97920.87;;;2.49;99.12
77939;BME280;67136;47.546;21.630;2023-12-22T16:09:06;97927.50;;;2.23;100.00
77939;BME280;67136;47.546;21.630;2023-12-22T16:12:10;97931.62;;;2.05;100.00